createdAt,value
2019-01-13T00:04:47.606Z,34.68
2019-01-13T00:10:42.660Z,32.71
2019-01-13T00:16:37.638Z,34.42
2019-01-13T00:22:32.628Z,37.16
2019-01-13T00:28:27.645Z,36.51
2019-01-13T00:34:22.644Z,38.11
2019-01-13T00:40:17.646Z,39.29
2019-01-13T00:46:12.643Z,47.85
2019-01-13T00:52:07.665Z,37.89
2019-01-13T00:58:02.650Z,40.07
2019-01-13T01:03:57.675Z,33.25
2019-01-13T01:09:52.658Z,27.73
2019-01-13T01:15:47.704Z,35.19
2019-01-13T01:21:42.716Z,31.52
2019-01-13T01:27:37.681Z,34.64
2019-01-13T01:33:32.711Z,36.61
2019-01-13T01:39:27.701Z,32.31
2019-01-13T01:45:22.671Z,34.25
2019-01-13T01:51:17.686Z,35.72
2019-01-13T01:57:12.728Z,33.65
2019-01-13T02:03:07.748Z,32.29
2019-01-13T02:09:02.700Z,30.18
2019-01-13T02:14:57.684Z,30.23
2019-01-13T02:20:52.682Z,29.08
2019-01-13T02:26:47.764Z,25.82
2019-01-13T02:32:42.736Z,23.86
2019-01-13T02:38:37.709Z,26.46
2019-01-13T02:44:32.712Z,28.03
2019-01-13T02:50:27.718Z,26.8
2019-01-13T02:56:22.712Z,29.26
2019-01-13T03:02:17.722Z,26.52
2019-01-13T03:08:12.754Z,25.3
2019-01-13T03:14:07.736Z,25.11
2019-01-13T03:20:02.756Z,31.74
2019-01-13T03:25:57.741Z,26.77
2019-01-13T03:31:52.727Z,25.14
2019-01-13T03:37:47.745Z,24.32
2019-01-13T03:43:42.735Z,27.6
2019-01-13T03:49:37.742Z,28.03
2019-01-13T03:55:32.769Z,30.23
2019-01-13T04:01:27.751Z,32.63
2019-01-13T04:07:22.738Z,34.51
2019-01-13T04:13:17.789Z,34.97
2019-01-13T04:19:12.743Z,36.34
2019-01-13T04:25:07.758Z,33.44
2019-01-13T04:31:02.748Z,31.87
2019-01-13T04:36:57.751Z,30.73
2019-01-13T04:42:52.765Z,29.14
2019-01-13T04:48:47.780Z,28.87
2019-01-13T04:54:42.783Z,23.4
2019-01-13T05:00:37.775Z,21.31
2019-01-13T05:06:32.790Z,21.74
2019-01-13T05:12:27.909Z,21.64
2019-01-13T05:18:22.787Z,25.96
2019-01-13T05:24:17.776Z,21.96
2019-01-13T05:30:12.799Z,23.02
2019-01-13T05:36:07.800Z,23.11
2019-01-13T05:42:02.792Z,23.92
2019-01-13T05:47:57.787Z,22.47
2019-01-13T05:53:52.786Z,25.62
2019-01-13T05:59:47.830Z,25.36
2019-01-13T06:05:42.803Z,23.23
2019-01-13T06:11:37.853Z,24.63
2019-01-13T06:17:32.812Z,29.33
2019-01-13T06:23:27.814Z,34.13
2019-01-13T06:29:22.847Z,38.76
2019-01-13T06:35:17.860Z,35.69
2019-01-13T06:41:12.822Z,34.18
2019-01-13T06:47:07.863Z,31.17
2019-01-13T06:53:02.836Z,31.72
2019-01-13T06:58:57.835Z,33.91
2019-01-13T07:04:52.827Z,31.26
2019-01-13T07:10:47.856Z,33.28
2019-01-13T07:16:42.830Z,32.44
2019-01-13T07:22:37.826Z,31.45
2019-01-13T07:28:32.860Z,34.06
2019-01-13T07:34:27.887Z,35.5
2019-01-13T07:40:22.857Z,28.15
2019-01-13T07:46:17.848Z,22.74
2019-01-13T07:52:12.878Z,20.98
2019-01-13T07:58:07.910Z,21.17
2019-01-13T08:04:02.859Z,18.46
2019-01-13T08:09:57.876Z,17.68
2019-01-13T08:15:52.889Z,22.94
2019-01-13T08:21:47.918Z,28.53
2019-01-13T08:27:42.883Z,32.17
2019-01-13T08:33:37.864Z,36.92
2019-01-13T08:39:32.929Z,39.43
2019-01-13T08:45:27.877Z,37.5
2019-01-13T08:51:22.899Z,39.47
2019-01-13T08:57:17.921Z,38.32
2019-01-13T09:03:12.905Z,37.49
2019-01-13T09:09:07.907Z,38.59
2019-01-13T09:15:02.895Z,39.68
2019-01-13T09:20:57.906Z,39.75
2019-01-13T09:26:52.917Z,44.5
2019-01-13T09:32:47.951Z,50.13
2019-01-13T09:38:42.902Z,47.96
2019-01-13T09:44:37.909Z,53.6
2019-01-13T09:50:32.963Z,56.24
2019-01-13T09:56:27.891Z,58.72
2019-01-13T10:02:22.935Z,64.51
2019-01-13T10:08:17.925Z,64.6
2019-01-13T10:14:12.969Z,72.87
2019-01-13T10:20:07.990Z,70.72
2019-01-13T10:26:02.952Z,71.02
2019-01-13T10:31:57.937Z,69.47
2019-01-13T10:37:52.951Z,64.53
2019-01-13T10:43:47.927Z,60.71
2019-01-13T10:49:42.955Z,52.72
2019-01-13T10:55:37.972Z,48.13
2019-01-13T11:01:32.992Z,56.19
2019-01-13T11:07:27.966Z,52.07
2019-01-13T11:13:22.936Z,53.69
2019-01-13T11:19:17.961Z,52.04
2019-01-13T11:25:12.983Z,50.71
2019-01-13T11:31:07.965Z,46.99
2019-01-13T11:37:02.961Z,39.06
2019-01-13T11:42:57.971Z,37.81
2019-01-13T11:48:52.976Z,28.92
2019-01-13T11:54:48.006Z,34.33
2019-01-13T12:00:42.989Z,32.12
2019-01-13T12:06:37.990Z,35.65
2019-01-13T12:12:32.989Z,46.75
2019-01-13T12:18:28.000Z,47.65
2019-01-13T12:24:22.996Z,43.23
2019-01-13T12:30:18.012Z,37.94
2019-01-13T12:36:13.004Z,39.79
2019-01-13T12:42:08.002Z,30.02
2019-01-13T12:48:03.069Z,28.26
2019-01-13T12:53:58.014Z,30.35
2019-01-13T12:59:53.014Z,60.85
2019-01-13T13:05:48.023Z,34.19
2019-01-13T13:11:43.036Z,38.08
2019-01-13T13:17:38.034Z,38.7
2019-01-13T13:23:33.052Z,19
2019-01-13T13:29:28.025Z,43.28
2019-01-13T13:35:23.026Z,23.79
2019-01-13T13:41:18.048Z,34.69
2019-01-13T13:47:13.040Z,28.97
2019-01-13T13:53:08.046Z,28.22
2019-01-13T13:59:03.037Z,29.98
2019-01-13T14:04:58.052Z,30.3
2019-01-13T14:10:53.049Z,29.07
2019-01-13T14:16:48.066Z,30.5
2019-01-13T14:22:43.100Z,35.33
2019-01-13T14:28:38.102Z,35.57
2019-01-13T14:34:33.060Z,33.74
2019-01-13T14:40:28.102Z,33.38
2019-01-13T14:46:23.059Z,32.5
2019-01-13T14:52:18.096Z,31.99
2019-01-13T14:58:13.124Z,31.14
2019-01-13T15:04:08.064Z,31.58
2019-01-13T15:10:03.075Z,32.89
2019-01-13T15:15:58.105Z,31.98
2019-01-13T15:21:53.138Z,32.38
2019-01-13T15:27:48.100Z,32.62
2019-01-13T15:33:43.091Z,32.75
2019-01-13T15:39:38.082Z,29.78
2019-01-13T15:45:33.094Z,35.71
2019-01-13T15:51:28.104Z,35.93
2019-01-13T15:57:23.134Z,38.95
2019-01-13T16:03:18.109Z,42.97
2019-01-13T16:09:13.166Z,41.29
2019-01-13T16:15:08.120Z,60.53
2019-01-13T16:21:03.131Z,58.11
2019-01-13T16:26:58.119Z,41.53
2019-01-13T16:32:53.113Z,37.97
2019-01-13T16:38:48.127Z,27.26
2019-01-13T16:44:43.127Z,29.77
2019-01-13T16:50:38.158Z,29.2
2019-01-13T16:56:33.138Z,26.6
2019-01-13T17:02:33.024Z,34.15
2019-01-13T17:08:23.141Z,34.03
2019-01-13T17:14:18.152Z,33.94
2019-01-13T17:20:13.156Z,34.13
2019-01-13T17:26:08.148Z,37
2019-01-13T17:32:03.155Z,31.47
2019-01-13T17:37:58.212Z,28.7
2019-01-13T17:43:53.173Z,21.8
2019-01-13T17:49:48.155Z,23.58
2019-01-13T17:55:43.174Z,37.59
2019-01-13T18:01:38.185Z,35.96
2019-01-13T18:07:33.170Z,32.85
2019-01-13T18:13:28.197Z,32.13
2019-01-13T18:19:23.177Z,34.51
2019-01-13T18:25:18.180Z,36.04
2019-01-13T18:31:13.237Z,41.14
2019-01-13T18:37:08.196Z,14.48
2019-01-13T18:43:03.211Z,37.27
2019-01-13T18:48:58.192Z,33.67
2019-01-13T18:54:53.205Z,29.55
2019-01-13T19:00:48.233Z,29.36
2019-01-13T19:06:43.209Z,39
2019-01-13T19:12:38.211Z,42.13
2019-01-13T19:18:33.250Z,51.74
2019-01-13T19:24:28.219Z,77.95
2019-01-13T19:30:23.211Z,77.07
2019-01-13T19:36:18.237Z,79
2019-01-13T19:42:13.228Z,76.73
2019-01-13T19:48:08.233Z,62.75
2019-01-13T19:54:03.233Z,61.72
2019-01-13T19:59:58.246Z,56.05
2019-01-13T20:05:53.253Z,51.66
2019-01-13T20:11:48.241Z,40.81
2019-01-13T20:17:43.243Z,39.25
2019-01-13T20:23:38.261Z,36.73
2019-01-13T20:29:33.289Z,34.2
2019-01-13T20:35:28.275Z,37.08
2019-01-13T20:41:23.296Z,32.34
2019-01-13T20:47:18.268Z,46.06
2019-01-13T20:53:13.266Z,50.49
2019-01-13T20:59:08.276Z,53.92
2019-01-13T21:05:03.335Z,52.34
2019-01-13T21:10:58.307Z,48.63
2019-01-13T21:16:53.269Z,49.81
2019-01-13T21:22:48.272Z,55.45
2019-01-13T21:28:43.278Z,53.28
2019-01-13T21:34:38.300Z,54.2
2019-01-13T21:40:33.343Z,54.22
2019-01-13T21:46:28.284Z,55.49
2019-01-13T21:52:23.278Z,55.53
2019-01-13T21:58:18.345Z,53.19
2019-01-13T22:04:13.321Z,52.29
2019-01-13T22:10:08.304Z,59.09
2019-01-13T22:16:03.313Z,57.74
2019-01-13T22:21:58.330Z,53.27
2019-01-13T22:27:53.306Z,54.67
2019-01-13T22:33:48.309Z,55.37
2019-01-13T22:39:43.367Z,69.83
2019-01-13T22:45:38.381Z,69.42
2019-01-13T22:51:33.346Z,64.66
2019-01-13T22:57:28.340Z,63.01
2019-01-13T23:03:23.349Z,66.84
2019-01-13T23:09:18.354Z,67.28
2019-01-13T23:15:13.350Z,66.4
2019-01-13T23:21:08.334Z,64.73
2019-01-13T23:27:03.332Z,62.83
2019-01-13T23:32:58.340Z,65.21
2019-01-13T23:38:53.343Z,66.27
2019-01-13T23:44:48.357Z,60.71
2019-01-13T23:50:43.344Z,54.05
2019-01-13T23:56:38.365Z,38.02
